createdAt,value
2023-02-22T00:02:11.747Z,15.25
2023-02-22T00:05:01.814Z,15.78
2023-02-22T00:07:45.698Z,15.38
2023-02-22T00:10:35.810Z,15.21
2023-02-22T00:13:20.198Z,15.12
2023-02-22T00:16:09.869Z,15.02
2023-02-22T00:18:52.200Z,14.92
2023-02-22T00:21:41.156Z,14.97
2023-02-22T00:24:26.256Z,15.06
2023-02-22T00:27:14.858Z,14.99
2023-02-22T00:29:58.219Z,16.01
2023-02-22T00:32:52.941Z,15.34
2023-02-22T00:35:41.091Z,15.14
2023-02-22T00:38:25.919Z,15.14
2023-02-22T00:41:18.472Z,15.21
2023-02-22T00:44:01.903Z,15.22
2023-02-22T00:46:51.242Z,15.18
2023-02-22T00:49:33.826Z,15.20
2023-02-22T00:52:24.164Z,15.22
2023-02-22T00:55:07.790Z,15.02
2023-02-22T00:57:57.136Z,15.07
2023-02-22T01:00:50.004Z,15.06
2023-02-22T01:03:42.289Z,14.93
2023-02-22T01:06:24.780Z,15.70
2023-02-22T01:09:13.113Z,15.23
2023-02-22T01:12:02.848Z,15.57
2023-02-22T01:14:51.103Z,15.18
2023-02-22T01:17:34.866Z,15.12
2023-02-22T01:20:26.606Z,14.93
2023-02-22T01:23:15.836Z,14.71
2023-02-22T01:25:58.370Z,15.13
2023-02-22T01:28:48.159Z,15.00
2023-02-22T01:31:36.142Z,14.75
2023-02-22T01:34:25.833Z,14.73
2023-02-22T01:37:09.179Z,14.77
2023-02-22T01:39:58.827Z,14.98
2023-02-22T01:42:41.112Z,15.20
2023-02-22T01:45:38.772Z,14.95
2023-02-22T01:48:32.882Z,14.87
2023-02-22T01:51:17.826Z,14.78
2023-02-22T01:54:11.877Z,14.80
2023-02-22T01:57:32.137Z,14.77
2023-02-22T02:00:18.931Z,14.82
2023-02-22T02:03:16.064Z,14.87
2023-02-22T02:06:00.858Z,15.00
2023-02-22T02:09:13.831Z,15.13
2023-02-22T02:11:58.175Z,15.24
2023-02-22T02:14:49.797Z,15.27
2023-02-22T02:17:32.104Z,15.24
2023-02-22T02:21:08.797Z,15.33
2023-02-22T02:24:10.179Z,15.34
2023-02-22T02:27:21.880Z,15.35
2023-02-22T02:30:17.121Z,15.24
2023-02-22T02:33:47.653Z,15.65
2023-02-22T02:36:41.119Z,15.89
2023-02-22T02:39:26.848Z,15.98
2023-02-22T02:42:15.094Z,16.05
2023-02-22T02:45:16.853Z,16.20
2023-02-22T02:48:10.930Z,16.32
2023-02-22T02:50:56.826Z,16.82
2023-02-22T02:53:49.813Z,16.93
2023-02-22T02:56:39.878Z,17.14
2023-02-22T02:59:40.534Z,17.67
2023-02-22T03:02:54.817Z,18.12
2023-02-22T03:06:02.898Z,18.62
2023-02-22T03:08:48.867Z,18.98
2023-02-22T03:11:49.653Z,18.75
2023-02-22T03:14:46.853Z,18.90
2023-02-22T03:17:48.862Z,19.24
2023-02-22T03:21:02.908Z,20.19
2023-02-22T03:24:04.144Z,20.37
2023-02-22T03:27:04.848Z,20.65
2023-02-22T03:30:01.800Z,20.97
2023-02-22T03:32:55.813Z,22.64
2023-02-22T03:35:52.180Z,23.08
2023-02-22T03:38:37.837Z,24.38
2023-02-22T03:41:32.867Z,23.49
2023-02-22T03:44:26.849Z,24.25
2023-02-22T03:47:16.020Z,25.92
2023-02-22T03:50:22.817Z,26.32
2023-02-22T03:53:06.083Z,25.49
2023-02-22T03:55:59.875Z,25.59
2023-02-22T03:58:50.072Z,25.10
2023-02-22T04:01:32.766Z,25.80
2023-02-22T04:04:22.344Z,26.39
2023-02-22T04:07:04.831Z,24.74
2023-02-22T04:09:47.867Z,24.99
2023-02-22T04:12:36.887Z,24.70
2023-02-22T04:15:22.360Z,24.19
2023-02-22T04:18:18.824Z,25.32
2023-02-22T04:21:07.913Z,25.90
2023-02-22T04:23:55.188Z,25.85
2023-02-22T04:26:43.825Z,25.14
2023-02-22T04:29:27.083Z,25.54
2023-02-22T04:32:16.891Z,25.29
2023-02-22T04:35:05.193Z,26.77
2023-02-22T04:37:47.880Z,26.37
2023-02-22T04:40:38.096Z,26.15
2023-02-22T04:43:20.946Z,27.33
2023-02-22T04:46:11.027Z,25.58
2023-02-22T04:49:00.803Z,25.01
2023-02-22T04:51:46.061Z,25.32
2023-02-22T04:54:38.816Z,26.02
2023-02-22T04:57:21.241Z,26.93
2023-02-22T05:00:10.862Z,27.52
2023-02-22T05:02:53.055Z,27.77
2023-02-22T05:05:41.870Z,27.19
2023-02-22T05:08:23.954Z,27.86
2023-02-22T05:11:13.212Z,27.91
2023-02-22T05:13:55.094Z,27.41
2023-02-22T05:16:43.808Z,26.95
2023-02-22T05:19:26.502Z,26.47
2023-02-22T05:22:15.854Z,26.73
2023-02-22T05:25:04.867Z,27.12
2023-02-22T05:27:47.241Z,26.56
2023-02-22T05:30:39.844Z,26.81
2023-02-22T05:33:28.925Z,26.48
2023-02-22T05:36:19.091Z,26.57
2023-02-22T05:39:01.809Z,26.34
2023-02-22T05:41:44.028Z,27.07
2023-02-22T05:44:32.883Z,27.03
2023-02-22T05:47:22.136Z,26.50
2023-02-22T05:50:04.863Z,26.31
2023-02-22T05:52:48.485Z,26.85
2023-02-22T05:55:38.833Z,26.38
2023-02-22T05:58:27.801Z,26.78
2023-02-22T06:01:10.140Z,26.94
2023-02-22T06:03:59.880Z,26.89
2023-02-22T06:06:42.124Z,27.09
2023-02-22T06:09:30.822Z,27.03
2023-02-22T06:12:14.112Z,26.76
2023-02-22T06:15:02.833Z,26.64
2023-02-22T06:17:45.117Z,26.60
2023-02-22T06:20:36.073Z,27.00
2023-02-22T06:23:18.214Z,26.68
2023-02-22T06:26:06.788Z,26.44
2023-02-22T06:28:49.120Z,26.68
2023-02-22T06:31:39.993Z,26.42
2023-02-22T06:34:29.072Z,26.55
2023-02-22T06:37:11.848Z,26.65
2023-02-22T06:39:53.961Z,26.72
2023-02-22T06:42:42.817Z,26.52
2023-02-22T06:45:25.079Z,26.36
2023-02-22T06:48:13.812Z,26.28
2023-02-22T06:51:02.018Z,26.22
2023-02-22T06:53:44.778Z,26.11
2023-02-22T06:56:33.121Z,26.14
2023-02-22T06:59:15.823Z,25.98
2023-02-22T07:02:05.023Z,26.02
2023-02-22T07:04:47.840Z,26.06
2023-02-22T07:07:36.095Z,26.27
2023-02-22T07:10:28.861Z,26.32
2023-02-22T07:13:10.992Z,26.28
2023-02-22T07:16:00.984Z,26.21
2023-02-22T07:18:49.096Z,26.29
2023-02-22T07:21:32.772Z,26.42
2023-02-22T07:24:22.074Z,26.44
2023-02-22T07:27:04.833Z,26.35
2023-02-22T07:29:53.101Z,26.22
2023-02-22T07:32:34.856Z,25.99
2023-02-22T07:35:29.130Z,26.00
2023-02-22T07:38:13.787Z,25.92
2023-02-22T07:41:03.163Z,25.80
2023-02-22T07:43:45.762Z,25.85
2023-02-22T07:46:34.932Z,25.90
2023-02-22T07:49:17.837Z,25.94
2023-02-22T07:52:00.064Z,26.12
2023-02-22T07:54:48.822Z,26.52
2023-02-22T07:57:37.083Z,26.72
2023-02-22T08:00:21.879Z,26.79
2023-02-22T08:03:14.277Z,26.44
2023-02-22T08:06:00.757Z,26.45
2023-02-22T08:08:50.849Z,26.33
2023-02-22T08:11:34.159Z,26.03
2023-02-22T08:14:24.876Z,26.12
2023-02-22T08:17:08.942Z,26.19
2023-02-22T08:19:57.887Z,26.32
2023-02-22T08:22:41.171Z,26.21
2023-02-22T08:25:33.158Z,25.98
2023-02-22T08:28:18.121Z,25.98
2023-02-22T08:31:06.794Z,26.06
2023-02-22T08:33:56.839Z,26.10
2023-02-22T08:36:50.663Z,26.09
2023-02-22T08:39:32.886Z,26.05
2023-02-22T08:42:15.033Z,25.95
2023-02-22T08:45:03.885Z,26.02
2023-02-22T08:47:52.850Z,25.94
2023-02-22T08:50:39.304Z,26.02
2023-02-22T08:53:27.807Z,26.04
2023-02-22T08:56:10.080Z,25.82
2023-02-22T08:58:58.858Z,25.75
2023-02-22T09:01:47.886Z,25.73
2023-02-22T09:04:30.182Z,25.79
2023-02-22T09:07:18.821Z,25.94
2023-02-22T09:10:07.051Z,25.90
2023-02-22T09:12:49.812Z,26.06
2023-02-22T09:15:32.494Z,26.06
2023-02-22T09:18:30.527Z,26.12
2023-02-22T09:21:18.244Z,26.14
2023-02-22T09:24:15.751Z,26.27
2023-02-22T09:27:11.785Z,26.22
2023-02-22T09:30:00.149Z,26.24
2023-02-22T09:32:41.967Z,26.21
2023-02-22T09:35:30.117Z,26.27
2023-02-22T09:38:16.782Z,26.17
2023-02-22T09:41:17.315Z,26.07
2023-02-22T09:44:14.815Z,25.90
2023-02-22T09:47:05.805Z,26.01
2023-02-22T09:50:17.143Z,26.06
2023-02-22T09:53:30.172Z,26.13
2023-02-22T09:56:35.603Z,25.95
2023-02-22T09:59:32.828Z,25.87
2023-02-22T10:02:43.861Z,25.74
2023-02-22T10:05:45.153Z,25.73
2023-02-22T10:08:30.236Z,25.70
2023-02-22T10:11:30.791Z,25.71
2023-02-22T10:14:44.014Z,25.62
2023-02-22T10:17:46.936Z,25.54
2023-02-22T10:20:38.256Z,25.39
2023-02-22T10:23:50.737Z,25.25
2023-02-22T10:26:41.036Z,25.33
2023-02-22T10:29:34.787Z,25.28
2023-02-22T10:32:57.759Z,25.22
2023-02-22T10:35:48.083Z,25.11
2023-02-22T10:38:35.750Z,25.18
2023-02-22T10:41:25.291Z,25.23
2023-02-22T10:44:15.897Z,25.21
2023-02-22T10:47:07.004Z,25.17
2023-02-22T10:50:04.856Z,25.28
2023-02-22T10:52:53.119Z,25.20
2023-02-22T10:55:35.901Z,25.16
2023-02-22T10:58:24.104Z,25.15
2023-02-22T11:01:06.873Z,25.11
2023-02-22T11:04:22.520Z,25.00
2023-02-22T11:07:13.738Z,25.02
2023-02-22T11:10:10.584Z,24.93
2023-02-22T11:12:56.010Z,24.94
2023-02-22T11:15:45.222Z,24.93
2023-02-22T11:18:40.836Z,24.90
2023-02-22T11:21:31.057Z,24.89
2023-02-22T11:27:09.091Z,24.80
2023-02-22T11:29:51.911Z,24.74
2023-02-22T11:32:41.210Z,24.75
2023-02-22T11:35:50.858Z,24.60
2023-02-22T11:38:41.114Z,24.56
2023-02-22T11:41:35.821Z,24.40
2023-02-22T11:44:41.054Z,24.27
2023-02-22T11:47:22.853Z,24.14
2023-02-22T11:50:25.144Z,24.04
2023-02-22T11:53:25.808Z,23.93
2023-02-22T11:56:37.580Z,23.83
2023-02-22T11:59:51.179Z,23.76
2023-02-22T12:02:56.977Z,23.69
2023-02-22T12:06:09.794Z,23.63
2023-02-22T12:09:15.000Z,23.55
2023-02-22T12:12:21.795Z,23.52
2023-02-22T12:15:46.151Z,23.46
2023-02-22T12:18:40.827Z,23.40
2023-02-22T12:21:32.100Z,23.32
2023-02-22T12:24:28.821Z,23.31
2023-02-22T12:27:33.026Z,23.21
2023-02-22T12:30:23.881Z,23.24
2023-02-22T12:33:23.081Z,23.19
2023-02-22T12:36:18.816Z,23.11
2023-02-22T12:39:52.153Z,23.05
2023-02-22T12:42:41.824Z,22.96
2023-02-22T12:45:53.143Z,22.90
2023-02-22T12:48:46.848Z,22.83
2023-02-22T12:52:21.242Z,22.68
2023-02-22T12:55:19.784Z,22.54
2023-02-22T12:58:33.136Z,22.33
2023-02-22T13:01:26.148Z,22.19
2023-02-22T13:04:20.819Z,21.99
2023-02-22T13:07:37.785Z,21.95
2023-02-22T13:10:29.383Z,21.80
2023-02-22T13:13:29.745Z,21.68
2023-02-22T13:16:40.139Z,21.54
2023-02-22T13:19:34.826Z,21.43
2023-02-22T13:22:35.067Z,21.25
2023-02-22T13:26:04.803Z,21.06
2023-02-22T13:29:29.485Z,21.08
2023-02-22T13:32:39.857Z,20.91
2023-02-22T13:36:04.622Z,20.86
2023-02-22T13:39:03.910Z,20.77
2023-02-22T13:42:12.131Z,20.63
2023-02-22T13:45:24.847Z,20.52
2023-02-22T13:48:16.450Z,20.44
2023-02-22T13:51:17.851Z,20.37
2023-02-22T13:54:09.149Z,20.32
2023-02-22T13:57:05.816Z,20.23
2023-02-22T13:59:48.460Z,20.08
2023-02-22T14:03:15.728Z,19.98
2023-02-22T14:06:02.543Z,19.95
2023-02-22T14:08:52.217Z,19.93
2023-02-22T14:11:40.312Z,19.87
2023-02-22T14:14:28.873Z,19.82
2023-02-22T14:17:38.058Z,19.80
2023-02-22T14:20:29.757Z,19.73
2023-02-22T14:23:33.201Z,19.69
2023-02-22T14:26:35.855Z,19.68
2023-02-22T14:29:18.253Z,19.67
2023-02-22T14:32:10.879Z,19.65
2023-02-22T14:35:17.180Z,19.58
2023-02-22T14:38:08.803Z,19.54
2023-02-22T14:41:00.772Z,19.46
2023-02-22T14:43:46.196Z,19.42
2023-02-22T14:46:39.830Z,19.38
2023-02-22T14:49:29.510Z,19.41
2023-02-22T14:52:34.823Z,19.33
2023-02-22T14:55:20.076Z,19.26
2023-02-22T14:58:21.826Z,19.15
2023-02-22T15:01:04.099Z,19.06
2023-02-22T15:04:02.122Z,19.03
2023-02-22T15:06:50.078Z,18.99
2023-02-22T15:09:44.866Z,18.96
2023-02-22T15:12:37.171Z,18.90
2023-02-22T15:15:29.777Z,18.85
2023-02-22T15:18:14.258Z,18.82
2023-02-22T15:21:07.067Z,18.78
2023-02-22T15:24:05.086Z,18.71
2023-02-22T15:27:01.611Z,18.62
2023-02-22T15:29:51.022Z,18.57
2023-02-22T15:33:03.218Z,18.55
2023-02-22T15:36:01.646Z,18.54
2023-02-22T15:38:57.791Z,18.51
2023-02-22T15:41:42.319Z,18.45
2023-02-22T15:44:30.910Z,18.43
2023-02-22T15:47:14.191Z,18.41
2023-02-22T15:50:23.917Z,18.38
2023-02-22T15:53:06.033Z,18.36
2023-02-22T15:55:56.855Z,18.35
2023-02-22T15:58:40.208Z,18.28
2023-02-22T16:01:28.873Z,18.18
2023-02-22T16:04:11.144Z,18.13
2023-02-22T16:07:08.772Z,18.08
2023-02-22T16:09:59.076Z,18.07
2023-02-22T16:12:47.779Z,18.05
2023-02-22T16:15:30.349Z,18.01
2023-02-22T16:18:38.827Z,18.03
2023-02-22T16:21:32.527Z,18.00
2023-02-22T16:24:35.582Z,18.06
2023-02-22T16:27:27.199Z,18.00
2023-02-22T16:30:29.914Z,18.04
2023-02-22T16:33:17.695Z,18.05
2023-02-22T16:36:06.932Z,18.01
2023-02-22T16:38:50.787Z,18.03
2023-02-22T16:41:39.854Z,18.02
2023-02-22T16:44:26.089Z,17.98
2023-02-22T16:47:18.730Z,17.92
2023-02-22T16:50:01.122Z,17.92
2023-02-22T16:52:49.770Z,17.92
2023-02-22T16:55:33.242Z,17.86
2023-02-22T16:58:23.801Z,17.87
2023-02-22T17:01:06.175Z,17.85
2023-02-22T17:03:55.748Z,17.83
2023-02-22T17:06:44.868Z,17.80
2023-02-22T17:09:33.886Z,17.74
2023-02-22T17:12:17.796Z,17.71
2023-02-22T17:15:08.425Z,17.70
2023-02-22T17:17:51.884Z,17.64
2023-02-22T17:20:41.155Z,17.68
2023-02-22T17:23:23.752Z,17.64
2023-02-22T17:26:14.772Z,17.63
2023-02-22T17:28:57.730Z,17.55
2023-02-22T17:31:47.224Z,17.54
2023-02-22T17:34:30.027Z,17.53
2023-02-22T17:37:20.190Z,17.51
2023-02-22T17:40:03.830Z,17.48
2023-02-22T17:42:56.120Z,17.44
2023-02-22T17:45:38.842Z,17.43
2023-02-22T17:48:28.222Z,17.62
2023-02-22T17:51:18.806Z,17.47
2023-02-22T17:54:07.960Z,17.59
2023-02-22T17:56:51.806Z,17.46
2023-02-22T17:59:35.391Z,17.42
2023-02-22T18:02:24.878Z,17.35
2023-02-22T18:05:17.861Z,17.44
2023-02-22T18:08:00.776Z,17.40
2023-02-22T18:10:53.723Z,17.32
2023-02-22T18:13:36.812Z,17.27
2023-02-22T18:16:29.274Z,17.25
2023-02-22T18:19:11.836Z,17.34
2023-02-22T18:22:02.798Z,17.58
2023-02-22T18:24:44.786Z,17.58
2023-02-22T18:27:34.138Z,17.70
2023-02-22T18:30:17.910Z,17.78
2023-02-22T18:33:06.157Z,17.79
2023-02-22T18:36:00.144Z,17.70
2023-02-22T18:38:45.751Z,18.11
2023-02-22T18:41:34.813Z,17.62
2023-02-22T18:44:17.253Z,17.45
2023-02-22T18:47:05.771Z,17.35
2023-02-22T18:49:48.249Z,17.27
2023-02-22T18:52:38.855Z,17.29
2023-02-22T18:55:27.083Z,17.30
2023-02-22T18:58:18.801Z,17.13
2023-02-22T19:01:01.206Z,16.96
2023-02-22T19:03:49.835Z,16.91
2023-02-22T19:06:32.239Z,16.85
2023-02-22T19:09:20.785Z,16.81
2023-02-22T19:12:03.139Z,16.75
2023-02-22T19:14:53.785Z,16.73
2023-02-22T19:17:37.709Z,16.69
2023-02-22T19:20:26.724Z,16.65
2023-02-22T19:23:11.288Z,16.60
2023-02-22T19:25:59.880Z,16.58
2023-02-22T19:28:42.184Z,16.55
2023-02-22T19:31:40.275Z,16.51
2023-02-22T19:34:26.912Z,16.45
2023-02-22T19:37:15.689Z,16.42
2023-02-22T19:39:58.197Z,16.41
2023-02-22T19:42:46.751Z,16.42
2023-02-22T19:45:30.234Z,16.42
2023-02-22T19:48:20.084Z,16.42
2023-02-22T19:51:02.684Z,16.40
2023-02-22T19:53:52.851Z,16.34
2023-02-22T19:56:36.259Z,16.30
2023-02-22T19:59:28.785Z,16.33
2023-02-22T20:02:12.592Z,16.30
2023-02-22T20:05:02.729Z,16.29
2023-02-22T20:07:46.047Z,16.28
2023-02-22T20:10:34.719Z,16.27
2023-02-22T20:13:18.125Z,16.22
2023-02-22T20:16:06.762Z,16.16
2023-02-22T20:18:55.502Z,16.16
2023-02-22T20:21:44.808Z,16.12
2023-02-22T20:24:28.670Z,16.11
2023-02-22T20:27:17.673Z,16.26
2023-02-22T20:30:00.190Z,16.91
2023-02-22T20:32:49.949Z,17.28
2023-02-22T20:35:44.650Z,17.11
2023-02-22T20:38:36.546Z,17.03
2023-02-22T20:41:40.186Z,17.07
2023-02-22T20:44:29.775Z,16.83
2023-02-22T20:47:11.957Z,17.53
2023-02-22T20:50:01.013Z,17.35
2023-02-22T20:52:43.142Z,17.14
2023-02-22T20:55:31.704Z,17.06
2023-02-22T20:58:20.733Z,17.09
2023-02-22T21:01:19.538Z,17.54
2023-02-22T21:04:02.713Z,17.48
2023-02-22T21:06:45.543Z,17.48
2023-02-22T21:09:38.829Z,17.66
2023-02-22T21:12:27.073Z,17.86
2023-02-22T21:15:09.695Z,17.63
2023-02-22T21:17:58.777Z,17.86
2023-02-22T21:20:42.117Z,17.57
2023-02-22T21:23:30.773Z,17.48
2023-02-22T21:26:20.740Z,17.64
2023-02-22T21:29:11.964Z,17.79
2023-02-22T21:31:53.861Z,17.32
2023-02-22T21:34:36.822Z,17.26
2023-02-22T21:37:27.102Z,17.24
2023-02-22T21:40:18.792Z,17.26
2023-02-22T21:43:01.001Z,17.33
2023-02-22T21:45:49.864Z,16.97
2023-02-22T21:48:31.997Z,16.75
2023-02-22T21:51:23.681Z,16.59
2023-02-22T21:54:08.021Z,16.80
2023-02-22T21:56:57.671Z,16.86
2023-02-22T21:59:40.526Z,16.91
2023-02-22T22:02:30.137Z,16.57
2023-02-22T22:05:17.974Z,16.67
2023-02-22T22:08:06.730Z,16.57
2023-02-22T22:10:48.968Z,16.40
2023-02-22T22:13:37.695Z,16.24
2023-02-22T22:16:23.263Z,16.20
2023-02-22T22:19:11.804Z,16.13
2023-02-22T22:22:01.747Z,16.07
2023-02-22T22:24:46.845Z,16.02
2023-02-22T22:27:35.781Z,16.08
2023-02-22T22:30:25.059Z,16.00
2023-02-22T22:33:07.663Z,15.86
2023-02-22T22:35:56.781Z,15.84
2023-02-22T22:38:40.028Z,15.78
2023-02-22T22:41:29.668Z,15.75
2023-02-22T22:44:11.925Z,15.80
2023-02-22T22:47:02.826Z,15.76
2023-02-22T22:49:45.989Z,15.88
2023-02-22T22:52:38.726Z,15.76
2023-02-22T22:55:21.059Z,15.65
2023-02-22T22:58:09.658Z,15.59
2023-02-22T23:00:59.715Z,15.53
2023-02-22T23:03:55.916Z,15.46
2023-02-22T23:06:46.734Z,15.44
2023-02-22T23:09:40.053Z,15.42
2023-02-22T23:12:28.258Z,15.39
2023-02-22T23:15:16.701Z,15.37
2023-02-22T23:18:00.260Z,15.35
2023-02-22T23:20:49.714Z,15.43
2023-02-22T23:23:39.774Z,15.38
2023-02-22T23:26:21.908Z,15.87
2023-02-22T23:29:11.742Z,15.81
2023-02-22T23:31:55.451Z,15.55
2023-02-22T23:34:44.714Z,15.46
2023-02-22T23:37:36.457Z,15.45
2023-02-22T23:40:26.706Z,15.65
2023-02-22T23:43:10.816Z,15.75
2023-02-22T23:46:04.713Z,15.79
2023-02-22T23:48:58.681Z,15.79
2023-02-22T23:51:47.656Z,15.64
2023-02-22T23:54:37.136Z,15.62
2023-02-22T23:57:27.738Z,15.46
